createdAt,value
2023-04-27T00:01:58.289Z,71.00
2023-04-27T00:04:25.665Z,71.00
2023-04-27T00:06:52.785Z,71.20
2023-04-27T00:09:20.119Z,71.20
2023-04-27T00:11:47.094Z,71.40
2023-04-27T00:14:14.029Z,71.50
2023-04-27T00:16:41.230Z,71.60
2023-04-27T00:19:11.115Z,71.80
2023-04-27T00:21:38.251Z,72.00
2023-04-27T00:24:05.641Z,72.10
2023-04-27T00:26:32.751Z,72.20
2023-04-27T00:28:59.637Z,72.30
2023-04-27T00:31:26.747Z,72.50
2023-04-27T00:33:53.777Z,72.70
2023-04-27T00:36:20.760Z,72.70
2023-04-27T00:38:47.677Z,72.80
2023-04-27T00:41:17.056Z,73.00
2023-04-27T00:43:44.889Z,73.10
2023-04-27T00:46:19.793Z,73.20
2023-04-27T00:48:47.047Z,73.40
2023-04-27T00:51:14.072Z,73.40
2023-04-27T00:53:41.006Z,73.50
2023-04-27T00:56:10.335Z,73.60
2023-04-27T00:58:37.291Z,73.70
2023-04-27T01:01:07.855Z,73.80
2023-04-27T01:03:35.309Z,73.90
2023-04-27T01:06:05.798Z,74.10
2023-04-27T01:08:32.712Z,74.10
2023-04-27T01:10:59.680Z,74.30
2023-04-27T01:13:26.776Z,74.40
2023-04-27T01:15:56.133Z,74.50
2023-04-27T01:18:23.481Z,74.60
2023-04-27T01:20:50.523Z,74.70
2023-04-27T01:23:17.740Z,74.70
2023-04-27T01:25:44.935Z,74.90
2023-04-27T01:28:12.030Z,75.00
2023-04-27T01:30:39.130Z,75.10
2023-04-27T01:33:06.168Z,75.10
2023-04-27T01:35:33.339Z,75.20
2023-04-27T01:38:00.411Z,75.20
2023-04-27T01:40:32.475Z,75.30
2023-04-27T01:42:59.373Z,75.30
2023-04-27T01:45:26.506Z,75.30
2023-04-27T01:47:53.576Z,75.30
2023-04-27T01:50:20.848Z,75.40
2023-04-27T01:52:47.764Z,75.50
2023-04-27T01:55:14.974Z,75.60
2023-04-27T01:57:41.914Z,75.60
2023-04-27T02:00:09.608Z,75.60
2023-04-27T02:02:36.801Z,75.70
2023-04-27T02:05:04.575Z,75.80
2023-04-27T02:07:31.480Z,75.80
2023-04-27T02:09:58.490Z,75.90
2023-04-27T02:12:25.482Z,76.00
2023-04-27T02:14:52.415Z,76.10
2023-04-27T02:17:19.406Z,76.10
2023-04-27T02:19:46.536Z,76.30
2023-04-27T02:22:13.443Z,76.30
2023-04-27T02:24:40.459Z,76.30
2023-04-27T02:27:10.244Z,76.40
2023-04-27T02:29:39.392Z,76.50
2023-04-27T02:32:07.126Z,76.60
2023-04-27T02:34:34.268Z,76.60
2023-04-27T02:37:01.372Z,76.70
2023-04-27T02:39:28.300Z,76.80
2023-04-27T02:41:55.158Z,76.90
2023-04-27T02:44:22.032Z,76.90
2023-04-27T02:46:49.924Z,77.10
2023-04-27T02:49:19.372Z,77.10
2023-04-27T02:51:47.602Z,77.20
2023-04-27T02:54:14.616Z,77.20
2023-04-27T02:56:41.468Z,77.20
2023-04-27T02:59:08.497Z,77.30
2023-04-27T03:01:35.860Z,77.30
2023-04-27T03:04:03.249Z,77.50
2023-04-27T03:06:30.377Z,77.40
2023-04-27T03:08:57.485Z,77.50
2023-04-27T03:11:24.487Z,77.60
2023-04-27T03:13:51.495Z,77.60
2023-04-27T03:16:18.576Z,77.70
2023-04-27T03:18:45.692Z,77.70
2023-04-27T03:21:12.863Z,77.70
2023-04-27T03:23:39.844Z,77.70
2023-04-27T03:26:08.570Z,77.80
2023-04-27T03:28:35.639Z,77.80
2023-04-27T03:31:09.659Z,77.80
2023-04-27T03:33:36.761Z,77.90
2023-04-27T03:36:04.631Z,77.90
2023-04-27T03:38:34.397Z,78.00
2023-04-27T03:41:01.428Z,78.00
2023-04-27T03:43:28.944Z,78.10
2023-04-27T03:45:56.349Z,78.20
2023-04-27T03:48:25.907Z,78.80
2023-04-27T03:50:52.997Z,78.30
2023-04-27T03:53:19.981Z,78.40
2023-04-27T03:55:47.796Z,78.40
2023-04-27T03:58:14.713Z,78.50
2023-04-27T04:00:41.575Z,78.50
2023-04-27T04:03:08.692Z,78.60
2023-04-27T04:05:36.182Z,78.60
2023-04-27T04:08:03.662Z,78.70
2023-04-27T04:10:30.774Z,78.60
2023-04-27T04:12:57.704Z,78.70
2023-04-27T04:15:24.657Z,78.70
2023-04-27T04:17:52.008Z,78.70
2023-04-27T04:20:19.159Z,78.70
2023-04-27T04:22:46.191Z,78.70
2023-04-27T04:25:13.248Z,78.70
2023-04-27T04:27:41.030Z,78.70
2023-04-27T04:30:08.516Z,78.70
2023-04-27T04:32:38.026Z,78.70
2023-04-27T04:35:06.301Z,78.70
2023-04-27T04:37:34.718Z,78.70
2023-04-27T04:40:04.031Z,78.80
2023-04-27T04:42:31.333Z,78.80
2023-04-27T04:44:58.939Z,78.90
2023-04-27T04:47:25.911Z,79.00
2023-04-27T04:49:52.834Z,79.10
2023-04-27T04:52:19.716Z,79.10
2023-04-27T04:54:46.617Z,79.20
2023-04-27T04:57:13.826Z,79.20
2023-04-27T04:59:41.347Z,79.20
2023-04-27T05:02:10.618Z,79.20
2023-04-27T05:04:37.713Z,79.20
2023-04-27T05:07:08.655Z,79.20
2023-04-27T05:09:35.624Z,79.20
2023-04-27T05:12:02.740Z,79.20
2023-04-27T05:14:29.665Z,79.10
2023-04-27T05:16:56.657Z,79.10
2023-04-27T05:19:23.638Z,79.10
2023-04-27T05:21:50.715Z,79.10
2023-04-27T05:24:35.872Z,79.10
2023-04-27T05:27:03.485Z,79.10
2023-04-27T05:29:30.779Z,79.10
2023-04-27T05:31:58.193Z,79.10
2023-04-27T05:34:25.852Z,79.10
2023-04-27T05:36:52.808Z,79.10
2023-04-27T05:39:22.647Z,79.00
2023-04-27T05:41:49.596Z,79.10
2023-04-27T05:44:16.773Z,79.10
2023-04-27T05:46:43.745Z,79.10
2023-04-27T05:49:10.776Z,79.10
2023-04-27T05:51:39.017Z,79.10
2023-04-27T05:54:06.052Z,79.20
2023-04-27T05:56:33.106Z,79.20
2023-04-27T05:59:10.970Z,79.20
2023-04-27T06:01:38.389Z,79.20
2023-04-27T06:04:05.640Z,79.20
2023-04-27T06:06:33.797Z,79.10
2023-04-27T06:09:01.083Z,79.10
2023-04-27T06:11:28.796Z,78.90
2023-04-27T06:13:55.697Z,78.80
2023-04-27T06:16:23.971Z,78.60
2023-04-27T06:18:51.290Z,78.40
2023-04-27T06:21:18.442Z,78.20
2023-04-27T06:23:45.625Z,78.20
2023-04-27T06:26:13.042Z,78.00
2023-04-27T06:28:39.997Z,77.90
2023-04-27T06:31:07.252Z,77.80
2023-04-27T06:33:34.289Z,77.60
2023-04-27T06:36:02.371Z,77.50
2023-04-27T06:38:29.502Z,77.40
2023-04-27T06:40:57.093Z,77.30
2023-04-27T06:43:24.123Z,77.10
2023-04-27T06:45:51.444Z,77.10
2023-04-27T06:50:59.852Z,76.80
2023-04-27T06:53:27.055Z,76.80
2023-04-27T06:55:54.228Z,76.70
2023-04-27T06:58:23.708Z,76.50
2023-04-27T07:00:51.141Z,76.40
2023-04-27T07:03:18.279Z,76.30
2023-04-27T07:05:45.848Z,76.20
2023-04-27T07:08:13.079Z,76.10
2023-04-27T07:10:40.151Z,76.00
2023-04-27T07:13:09.141Z,75.80
2023-04-27T07:15:36.933Z,75.70
2023-04-27T07:18:04.204Z,75.50
2023-04-27T07:20:31.355Z,75.40
2023-04-27T07:22:58.647Z,75.30
2023-04-27T07:25:26.029Z,75.20
2023-04-27T07:27:53.115Z,75.00
2023-04-27T07:30:20.347Z,75.00
2023-04-27T07:32:53.953Z,74.80
2023-04-27T07:38:13.027Z,74.40
2023-04-27T07:40:40.075Z,74.20
2023-04-27T07:43:07.298Z,74.10
2023-04-27T07:45:34.858Z,73.90
2023-04-27T07:48:02.454Z,73.80
2023-04-27T07:50:30.251Z,73.70
2023-04-27T07:52:57.707Z,73.50
2023-04-27T07:55:25.081Z,73.40
2023-04-27T07:57:55.664Z,73.20
2023-04-27T08:00:23.699Z,73.10
2023-04-27T08:02:53.368Z,72.80
2023-04-27T08:05:25.379Z,72.70
2023-04-27T08:08:00.583Z,72.50
2023-04-27T08:10:52.099Z,72.30
2023-04-27T08:14:00.092Z,72.00
2023-04-27T08:16:32.670Z,71.80
2023-04-27T08:19:00.690Z,71.60
2023-04-27T08:21:28.784Z,71.40
2023-04-27T08:24:05.986Z,71.20
2023-04-27T08:26:43.117Z,70.90
2023-04-27T08:29:26.308Z,70.70
2023-04-27T08:32:21.328Z,70.40
2023-04-27T08:38:59.020Z,69.80
2023-04-27T08:41:35.245Z,69.60
2023-04-27T08:51:32.938Z,69.00
2023-04-27T08:54:02.402Z,68.70
2023-04-27T08:57:40.579Z,68.40
2023-04-27T09:04:04.206Z,67.60
2023-04-27T09:06:43.413Z,67.50
2023-04-27T09:13:08.277Z,67.00
2023-04-27T09:16:25.809Z,66.70
2023-04-27T09:18:53.473Z,66.40
2023-04-27T09:21:40.352Z,66.10
2023-04-27T09:24:25.914Z,65.80
2023-04-27T09:26:52.912Z,65.50
2023-04-27T09:30:18.116Z,65.30
2023-04-27T09:33:35.003Z,65.10
2023-04-27T09:36:19.165Z,64.80
2023-04-27T09:42:00.949Z,64.50
2023-04-27T09:44:48.877Z,64.50
2023-04-27T09:47:15.953Z,64.00
2023-04-27T09:56:17.820Z,63.60
2023-04-27T09:59:46.984Z,63.50
2023-04-27T10:02:24.806Z,63.30
2023-04-27T10:08:26.299Z,63.20
2023-04-27T10:11:17.177Z,63.20
2023-04-27T10:14:02.844Z,63.00
2023-04-27T10:17:01.168Z,62.90
2023-04-27T10:19:35.582Z,62.70
2023-04-27T10:22:17.334Z,62.30
2023-04-27T10:25:31.145Z,62.20
2023-04-27T10:28:38.249Z,62.00
2023-04-27T10:31:27.656Z,61.60
2023-04-27T10:34:13.063Z,61.30
2023-04-27T10:37:14.776Z,61.00
2023-04-27T10:41:00.943Z,60.70
2023-04-27T10:43:39.308Z,60.40
2023-04-27T10:46:19.609Z,60.20
2023-04-27T10:48:56.176Z,59.80
2023-04-27T10:51:29.369Z,59.70
2023-04-27T10:56:41.216Z,59.20
2023-04-27T10:59:11.074Z,59.20
2023-04-27T11:01:38.350Z,58.90
2023-04-27T11:04:06.142Z,58.70
2023-04-27T11:07:21.138Z,58.60
2023-04-27T11:09:49.377Z,58.40
2023-04-27T11:12:17.158Z,58.40
2023-04-27T11:14:44.065Z,58.30
2023-04-27T11:17:11.825Z,58.20
2023-04-27T11:19:46.760Z,58.00
2023-04-27T11:22:16.565Z,57.90
2023-04-27T11:24:50.439Z,57.90
2023-04-27T11:27:18.142Z,57.70
2023-04-27T11:29:45.524Z,57.60
2023-04-27T11:32:24.597Z,57.50
2023-04-27T11:34:53.467Z,57.30
2023-04-27T11:37:25.566Z,57.30
2023-04-27T11:39:54.356Z,57.10
2023-04-27T11:42:29.109Z,57.10
2023-04-27T11:45:03.187Z,56.90
2023-04-27T11:47:31.006Z,57.00
2023-04-27T11:49:59.760Z,56.90
2023-04-27T11:52:30.703Z,56.90
2023-04-27T11:54:58.422Z,56.90
2023-04-27T11:57:33.568Z,56.90
2023-04-27T12:00:02.587Z,56.90
2023-04-27T12:02:31.420Z,56.90
2023-04-27T12:04:59.816Z,56.90
2023-04-27T12:07:27.334Z,56.80
2023-04-27T12:09:54.595Z,56.70
2023-04-27T12:12:24.698Z,56.50
2023-04-27T12:14:52.209Z,56.60
2023-04-27T12:17:19.300Z,56.50
2023-04-27T12:19:46.764Z,56.40
2023-04-27T12:22:14.592Z,56.30
2023-04-27T12:24:41.587Z,56.20
2023-04-27T12:27:09.399Z,56.00
2023-04-27T12:29:37.125Z,56.00
2023-04-27T12:32:04.322Z,55.90
2023-04-27T12:34:31.667Z,55.90
2023-04-27T12:36:58.778Z,55.90
2023-04-27T12:39:26.072Z,55.90
2023-04-27T12:41:53.504Z,55.80
2023-04-27T12:44:21.497Z,55.80
2023-04-27T12:46:48.675Z,55.70
2023-04-27T12:49:17.689Z,55.40
2023-04-27T12:51:45.907Z,55.30
2023-04-27T12:54:13.231Z,55.30
2023-04-27T12:56:40.375Z,55.20
2023-04-27T12:59:07.654Z,55.10
2023-04-27T13:01:35.199Z,55.20
2023-04-27T13:04:04.072Z,55.30
2023-04-27T13:06:51.452Z,55.30
2023-04-27T13:09:18.547Z,55.30
2023-04-27T13:11:45.572Z,55.40
2023-04-27T13:14:14.968Z,55.40
2023-04-27T13:16:42.548Z,55.50
2023-04-27T13:19:12.453Z,55.50
2023-04-27T13:21:39.526Z,55.60
2023-04-27T13:24:07.193Z,55.60
2023-04-27T13:26:34.268Z,55.50
2023-04-27T13:29:02.272Z,56.10
2023-04-27T13:31:29.533Z,55.60
2023-04-27T13:33:56.980Z,55.50
2023-04-27T13:36:24.436Z,55.60
2023-04-27T13:38:54.578Z,55.70
2023-04-27T13:41:22.661Z,55.70
2023-04-27T13:43:49.944Z,55.80
2023-04-27T13:46:16.869Z,55.90
2023-04-27T13:48:44.122Z,56.00
2023-04-27T13:51:11.607Z,56.10
2023-04-27T13:53:38.789Z,56.20
2023-04-27T13:56:05.966Z,56.30
2023-04-27T13:58:36.751Z,56.30
2023-04-27T14:01:03.712Z,56.40
2023-04-27T14:03:43.281Z,56.50
2023-04-27T14:06:10.941Z,56.60
2023-04-27T14:08:38.222Z,56.80
2023-04-27T14:11:06.724Z,56.90
2023-04-27T14:13:55.606Z,57.00
2023-04-27T14:16:24.778Z,57.10
2023-04-27T14:19:00.161Z,57.30
2023-04-27T14:22:07.134Z,57.40
2023-04-27T14:24:37.196Z,57.60
2023-04-27T14:27:07.040Z,57.70
2023-04-27T14:29:34.291Z,57.80
2023-04-27T14:32:01.621Z,57.80
2023-04-27T14:34:28.905Z,57.90
2023-04-27T14:36:57.001Z,57.90
2023-04-27T14:39:30.053Z,57.90
2023-04-27T14:41:57.524Z,58.00
2023-04-27T14:44:24.689Z,58.10
2023-04-27T14:46:51.848Z,58.20
2023-04-27T14:49:21.973Z,58.30
2023-04-27T14:51:49.104Z,58.40
2023-04-27T14:54:16.285Z,58.40
2023-04-27T14:56:48.137Z,58.50
2023-04-27T14:59:15.813Z,58.50
2023-04-27T15:01:46.189Z,59.10
2023-04-27T15:04:13.461Z,58.50
2023-04-27T15:06:40.828Z,58.50
2023-04-27T15:09:12.215Z,58.50
2023-04-27T15:11:43.598Z,58.60
2023-04-27T15:14:15.049Z,58.70
2023-04-27T15:16:42.231Z,58.90
2023-04-27T15:19:14.423Z,59.00
2023-04-27T15:21:44.929Z,59.10
2023-04-27T15:24:20.133Z,59.20
2023-04-27T15:26:48.454Z,59.50
2023-04-27T15:29:16.065Z,59.70
2023-04-27T15:31:43.558Z,59.90
2023-04-27T15:34:10.953Z,60.20
2023-04-27T15:36:39.607Z,60.40
2023-04-27T15:39:12.225Z,60.80
2023-04-27T15:41:43.702Z,61.20
2023-04-27T15:44:10.746Z,61.60
2023-04-27T15:46:37.837Z,62.10
2023-04-27T15:49:05.044Z,62.50
2023-04-27T15:51:36.662Z,62.90
2023-04-27T15:54:08.688Z,63.20
2023-04-27T15:56:36.026Z,63.50
2023-04-27T15:59:04.126Z,63.80
2023-04-27T16:01:31.766Z,64.00
2023-04-27T16:03:59.295Z,64.40
2023-04-27T16:06:55.778Z,64.70
2023-04-27T16:09:26.030Z,65.40
2023-04-27T16:11:53.119Z,65.40
2023-04-27T16:14:23.201Z,65.70
2023-04-27T16:16:51.492Z,66.00
2023-04-27T16:19:21.415Z,66.40
2023-04-27T16:22:17.169Z,67.10
2023-04-27T16:25:40.446Z,67.80
2023-04-27T16:28:10.049Z,68.20
2023-04-27T16:30:40.264Z,68.20
2023-04-27T16:33:11.413Z,68.70
2023-04-27T16:35:59.343Z,69.00
2023-04-27T16:39:23.633Z,69.30
2023-04-27T16:41:51.355Z,70.00
2023-04-27T16:44:30.277Z,70.00
2023-04-27T16:47:00.108Z,70.30
2023-04-27T16:49:30.151Z,70.60
2023-04-27T16:51:57.210Z,70.90
2023-04-27T16:54:24.545Z,71.10
2023-04-27T16:56:55.221Z,71.40
2023-04-27T16:59:22.647Z,71.70
2023-04-27T17:02:00.020Z,71.80
2023-04-27T17:04:54.481Z,72.10
2023-04-27T17:07:29.946Z,72.60
2023-04-27T17:10:17.695Z,72.40
2023-04-27T17:13:16.679Z,72.60
2023-04-27T17:15:47.625Z,73.00
2023-04-27T17:18:18.056Z,72.90
2023-04-27T17:20:47.734Z,73.00
2023-04-27T17:23:17.422Z,73.30
2023-04-27T17:25:48.131Z,73.40
2023-04-27T17:28:15.239Z,73.70
2023-04-27T17:30:42.814Z,74.00
2023-04-27T17:33:10.407Z,74.20
2023-04-27T17:35:37.534Z,74.60
2023-04-27T17:38:04.727Z,74.80
2023-04-27T17:40:31.838Z,75.10
2023-04-27T17:43:01.391Z,75.30
2023-04-27T17:45:29.128Z,75.70
2023-04-27T17:48:00.540Z,75.80
2023-04-27T17:50:28.106Z,76.10
2023-04-27T17:52:58.243Z,76.40
2023-04-27T17:55:28.241Z,76.60
2023-04-27T17:57:55.719Z,76.80
2023-04-27T18:00:23.345Z,77.00
2023-04-27T18:02:50.933Z,77.10
2023-04-27T18:05:18.487Z,77.30
2023-04-27T18:07:50.337Z,77.40
2023-04-27T18:10:26.405Z,77.50
2023-04-27T18:13:02.645Z,77.70
2023-04-27T18:15:40.266Z,77.90
2023-04-27T18:18:11.416Z,78.00
2023-04-27T18:20:45.262Z,78.20
2023-04-27T18:23:12.303Z,78.30
2023-04-27T18:25:50.240Z,78.30
2023-04-27T18:28:17.518Z,78.20
2023-04-27T18:30:57.825Z,78.20
2023-04-27T18:37:13.355Z,78.50
2023-04-27T18:42:41.940Z,78.80
2023-04-27T18:45:09.363Z,78.80
2023-04-27T18:47:36.788Z,78.90
2023-04-27T18:50:17.638Z,79.10
2023-04-27T18:52:45.372Z,79.20
2023-04-27T18:55:16.361Z,79.20
2023-04-27T18:57:46.020Z,79.30
2023-04-27T19:00:16.484Z,79.50
2023-04-27T19:02:43.822Z,79.60
2023-04-27T19:05:15.812Z,79.60
2023-04-27T19:08:08.284Z,79.80
2023-04-27T19:10:53.295Z,79.90
2023-04-27T19:19:01.319Z,80.00
2023-04-27T19:21:34.603Z,80.00
2023-04-27T19:24:07.649Z,80.10
2023-04-27T19:26:41.347Z,80.10
2023-04-27T19:29:12.301Z,80.20
2023-04-27T19:31:45.388Z,80.20
2023-04-27T19:34:50.472Z,80.30
2023-04-27T19:37:19.983Z,80.60
2023-04-27T19:39:52.574Z,80.50
2023-04-27T19:42:22.642Z,80.60
2023-04-27T19:44:49.771Z,80.70
2023-04-27T19:47:16.709Z,80.90
2023-04-27T19:49:43.921Z,81.00
2023-04-27T19:52:13.180Z,81.10
2023-04-27T19:54:43.222Z,81.30
2023-04-27T19:57:17.050Z,81.50
2023-04-27T20:03:42.507Z,81.90
2023-04-27T20:06:42.192Z,81.70
2023-04-27T20:09:21.329Z,81.90
2023-04-27T20:11:48.491Z,82.00
2023-04-27T20:14:20.539Z,82.10
2023-04-27T20:16:51.267Z,82.30
2023-04-27T20:19:19.654Z,82.40
2023-04-27T20:21:57.845Z,82.50
2023-04-27T20:24:29.122Z,82.70
2023-04-27T20:27:27.276Z,82.80
2023-04-27T20:29:57.691Z,82.90
2023-04-27T20:32:29.408Z,82.90
2023-04-27T20:35:05.496Z,83.00
2023-04-27T20:37:39.541Z,83.10
2023-04-27T20:40:10.835Z,83.20
2023-04-27T20:42:43.043Z,83.30
2023-04-27T20:45:16.479Z,83.30
2023-04-27T20:48:09.986Z,83.40
2023-04-27T20:50:33.689Z,83.40
2023-04-27T20:53:05.864Z,83.40
2023-04-27T20:55:34.122Z,83.50
2023-04-27T20:58:26.810Z,83.70
2023-04-27T21:00:59.021Z,83.80
2023-04-27T21:03:29.353Z,83.80
2023-04-27T21:05:56.585Z,83.90
2023-04-27T21:08:23.690Z,84.00
2023-04-27T21:10:50.738Z,84.10
2023-04-27T21:13:20.463Z,84.10
2023-04-27T21:15:47.480Z,84.20
2023-04-27T21:20:56.030Z,84.50
2023-04-27T21:23:25.254Z,84.50
2023-04-27T21:25:52.374Z,84.60
2023-04-27T21:28:25.141Z,84.60
2023-04-27T21:30:56.428Z,84.70
2023-04-27T21:33:23.573Z,84.90
2023-04-27T21:35:50.576Z,84.90
2023-04-27T21:38:20.421Z,85.00
2023-04-27T21:40:47.593Z,85.00
2023-04-27T21:43:14.665Z,85.10
2023-04-27T21:45:44.211Z,85.30
2023-04-27T21:48:11.444Z,85.40
2023-04-27T21:50:39.648Z,85.50
2023-04-27T21:53:06.854Z,85.60
2023-04-27T21:55:33.893Z,85.60
2023-04-27T21:58:00.928Z,85.70
2023-04-27T22:00:28.214Z,85.70
2023-04-27T22:02:55.714Z,85.80
2023-04-27T22:05:22.869Z,85.90
2023-04-27T22:07:53.548Z,85.90
2023-04-27T22:10:22.827Z,86.00
2023-04-27T22:12:49.938Z,86.10
2023-04-27T22:15:17.120Z,86.10
2023-04-27T22:17:44.178Z,86.10
2023-04-27T22:20:15.567Z,86.30
2023-04-27T22:22:42.810Z,86.20
2023-04-27T22:25:14.285Z,86.40
2023-04-27T22:27:44.835Z,86.40
2023-04-27T22:30:13.645Z,86.40
2023-04-27T22:32:40.713Z,86.60
2023-04-27T22:35:24.793Z,86.70
2023-04-27T22:37:57.740Z,86.70
2023-04-27T22:40:24.920Z,86.70
2023-04-27T22:42:52.759Z,86.80
2023-04-27T22:45:19.853Z,86.80
2023-04-27T22:47:46.963Z,86.90
2023-04-27T22:50:14.252Z,86.90
2023-04-27T22:52:44.375Z,87.00
2023-04-27T22:55:11.895Z,87.00
2023-04-27T22:57:42.577Z,87.10
2023-04-27T23:00:19.937Z,87.10
2023-04-27T23:02:47.622Z,87.20
2023-04-27T23:05:14.824Z,87.10
2023-04-27T23:07:43.075Z,87.20
2023-04-27T23:10:10.935Z,87.20
2023-04-27T23:12:38.929Z,87.20
2023-04-27T23:15:10.987Z,87.30
2023-04-27T23:17:38.091Z,87.40
2023-04-27T23:20:11.164Z,87.50
2023-04-27T23:22:46.889Z,87.50
2023-04-27T23:25:16.417Z,87.60
2023-04-27T23:27:43.732Z,87.60
2023-04-27T23:30:11.120Z,87.60
2023-04-27T23:32:38.110Z,87.60
2023-04-27T23:35:05.816Z,87.70
2023-04-27T23:37:33.990Z,87.70
2023-04-27T23:40:03.564Z,87.70
2023-04-27T23:42:30.548Z,87.70
2023-04-27T23:45:10.049Z,87.80
2023-04-27T23:47:37.381Z,87.80
2023-04-27T23:50:05.019Z,87.80
2023-04-27T23:52:32.232Z,87.80
2023-04-27T23:54:59.192Z,87.90
2023-04-27T23:57:26.310Z,87.90
2023-04-27T23:59:53.328Z,87.90
